createdAt,value
2023-05-02T00:01:32.211Z,9.81
2023-05-02T00:03:59.115Z,9.83
2023-05-02T00:06:25.963Z,9.90
2023-05-02T00:08:52.787Z,9.88
2023-05-02T00:11:21.299Z,9.87
2023-05-02T00:13:48.017Z,10.09
2023-05-02T00:16:14.717Z,10.11
2023-05-02T00:18:41.481Z,10.53
2023-05-02T00:21:08.169Z,10.26
2023-05-02T00:23:34.883Z,10.38
2023-05-02T00:26:01.624Z,10.49
2023-05-02T00:28:29.737Z,10.41
2023-05-02T00:30:56.481Z,10.25
2023-05-02T00:33:23.217Z,10.26
2023-05-02T00:35:49.958Z,10.34
2023-05-02T00:38:16.699Z,10.38
2023-05-02T00:40:44.376Z,10.41
2023-05-02T00:43:11.060Z,10.49
2023-05-02T00:45:39.413Z,10.48
2023-05-02T00:48:06.844Z,10.49
2023-05-02T00:50:34.209Z,10.55
2023-05-02T00:53:00.918Z,10.59
2023-05-02T00:55:27.640Z,10.52
2023-05-02T00:57:54.375Z,10.45
2023-05-02T01:00:21.700Z,10.49
2023-05-02T01:02:52.684Z,10.35
2023-05-02T01:05:21.611Z,10.31
2023-05-02T01:08:02.481Z,10.32
2023-05-02T01:10:33.825Z,10.22
2023-05-02T01:13:03.734Z,10.21
2023-05-02T01:15:30.516Z,10.11
2023-05-02T01:17:58.641Z,10.18
2023-05-02T01:20:27.591Z,10.21
2023-05-02T01:22:54.642Z,10.05
2023-05-02T01:25:25.269Z,10.01
2023-05-02T01:27:58.328Z,9.86
2023-05-02T01:30:27.053Z,9.90
2023-05-02T01:32:54.147Z,9.95
2023-05-02T01:35:21.354Z,10.01
2023-05-02T01:37:48.554Z,9.91
2023-05-02T01:40:17.029Z,9.69
2023-05-02T01:42:43.713Z,9.59
2023-05-02T01:45:11.651Z,9.44
2023-05-02T01:47:39.825Z,9.32
2023-05-02T01:50:07.732Z,9.47
2023-05-02T01:52:34.411Z,9.43
2023-05-02T01:55:01.148Z,9.43
2023-05-02T01:57:27.874Z,9.42
2023-05-02T01:59:55.311Z,9.19
2023-05-02T02:02:22.069Z,9.18
2023-05-02T02:04:50.472Z,9.08
2023-05-02T02:07:17.375Z,8.91
2023-05-02T02:09:44.048Z,8.75
2023-05-02T02:12:12.222Z,8.84
2023-05-02T02:14:40.240Z,8.60
2023-05-02T02:17:11.985Z,8.52
2023-05-02T02:19:39.327Z,8.47
2023-05-02T02:22:07.534Z,8.40
2023-05-02T02:24:34.727Z,8.49
2023-05-02T02:27:01.523Z,8.52
2023-05-02T02:29:28.241Z,8.39
2023-05-02T02:31:54.914Z,8.29
2023-05-02T02:34:21.615Z,8.25
2023-05-02T02:36:50.578Z,8.26
2023-05-02T02:39:25.538Z,8.25
2023-05-02T02:41:59.336Z,8.25
2023-05-02T02:44:28.494Z,8.17
2023-05-02T02:47:00.396Z,8.30
2023-05-02T02:49:30.644Z,8.19
2023-05-02T02:52:01.200Z,8.13
2023-05-02T02:54:32.327Z,8.05
2023-05-02T02:57:01.333Z,8.06
2023-05-02T02:59:29.535Z,7.95
2023-05-02T03:02:02.271Z,8.21
2023-05-02T03:04:29.959Z,8.21
2023-05-02T03:06:56.643Z,8.29
2023-05-02T03:09:23.459Z,8.26
2023-05-02T03:11:51.509Z,8.42
2023-05-02T03:14:18.259Z,8.44
2023-05-02T03:16:45.192Z,8.80
2023-05-02T03:19:11.947Z,8.87
2023-05-02T03:21:38.665Z,9.01
2023-05-02T03:24:05.807Z,8.97
2023-05-02T03:26:32.504Z,9.18
2023-05-02T03:29:00.619Z,9.14
2023-05-02T03:31:27.407Z,9.33
2023-05-02T03:33:54.114Z,9.42
2023-05-02T03:36:20.814Z,9.49
2023-05-02T03:38:47.542Z,9.66
2023-05-02T03:41:14.244Z,9.77
2023-05-02T03:43:40.964Z,9.91
2023-05-02T03:46:09.351Z,10.07
2023-05-02T03:48:36.033Z,10.02
2023-05-02T03:51:02.810Z,10.02
2023-05-02T03:53:29.767Z,10.18
2023-05-02T03:55:56.495Z,10.34
2023-05-02T03:58:23.192Z,10.38
2023-05-02T04:00:49.887Z,10.46
2023-05-02T04:03:18.003Z,10.45
2023-05-02T04:05:44.778Z,10.49
2023-05-02T04:08:11.529Z,10.52
2023-05-02T04:10:38.203Z,10.45
2023-05-02T04:13:04.903Z,10.62
2023-05-02T04:15:31.830Z,10.89
2023-05-02T04:17:58.728Z,10.89
2023-05-02T04:20:26.868Z,11.10
2023-05-02T04:22:53.749Z,11.45
2023-05-02T04:25:20.454Z,11.80
2023-05-02T04:27:47.124Z,12.30
2023-05-02T04:30:13.994Z,12.62
2023-05-02T04:32:40.766Z,12.88
2023-05-02T04:35:08.126Z,13.50
2023-05-02T04:37:36.320Z,13.94
2023-05-02T04:40:03.662Z,13.74
2023-05-02T04:42:30.363Z,14.21
2023-05-02T04:44:57.114Z,15.14
2023-05-02T04:47:23.945Z,15.15
2023-05-02T04:49:50.687Z,15.65
2023-05-02T04:52:17.436Z,15.69
2023-05-02T04:54:45.599Z,15.76
2023-05-02T04:57:12.295Z,16.44
2023-05-02T04:59:39.031Z,16.22
2023-05-02T05:02:05.896Z,15.79
2023-05-02T05:04:32.683Z,15.80
2023-05-02T05:06:59.534Z,15.73
2023-05-02T05:09:26.302Z,16.32
2023-05-02T05:11:54.459Z,16.32
2023-05-02T05:14:21.187Z,15.93
2023-05-02T05:16:48.061Z,16.36
2023-05-02T05:19:14.920Z,16.26
2023-05-02T05:21:41.692Z,16.45
2023-05-02T05:24:08.414Z,16.40
2023-05-02T05:26:35.310Z,16.52
2023-05-02T05:29:03.521Z,16.18
2023-05-02T05:31:30.277Z,16.72
2023-05-02T05:33:57.131Z,17.72
2023-05-02T05:36:23.909Z,16.90
2023-05-02T05:38:50.924Z,16.31
2023-05-02T05:41:17.647Z,16.51
2023-05-02T05:43:44.448Z,16.36
2023-05-02T05:46:12.548Z,17.03
2023-05-02T05:48:39.259Z,17.09
2023-05-02T05:51:06.486Z,17.07
2023-05-02T05:53:33.227Z,17.28
2023-05-02T05:55:59.996Z,17.23
2023-05-02T05:58:26.813Z,16.82
2023-05-02T06:00:53.562Z,16.56
2023-05-02T06:03:21.897Z,17.02
2023-05-02T06:05:48.721Z,17.11
2023-05-02T06:08:15.459Z,18.75
2023-05-02T06:10:42.138Z,18.82
2023-05-02T06:13:08.940Z,17.82
2023-05-02T06:15:35.682Z,17.58
2023-05-02T06:18:02.487Z,17.55
2023-05-02T06:20:30.620Z,18.33
2023-05-02T06:22:57.358Z,18.88
2023-05-02T06:25:24.127Z,19.95
2023-05-02T06:27:50.964Z,19.06
2023-05-02T06:30:17.867Z,19.12
2023-05-02T06:32:44.588Z,19.09
2023-05-02T06:35:11.514Z,19.02
2023-05-02T06:37:39.683Z,19.37
2023-05-02T06:40:07.740Z,20.32
2023-05-02T06:42:34.484Z,20.38
2023-05-02T06:45:01.196Z,20.79
2023-05-02T06:47:27.998Z,20.18
2023-05-02T06:49:56.066Z,21.75
2023-05-02T06:52:22.851Z,20.77
2023-05-02T06:54:50.978Z,20.93
2023-05-02T06:57:17.721Z,21.48
2023-05-02T06:59:44.444Z,20.73
2023-05-02T07:02:11.142Z,20.90
2023-05-02T07:04:37.996Z,21.17
2023-05-02T07:07:04.856Z,21.78
2023-05-02T07:09:31.594Z,22.52
2023-05-02T07:11:59.678Z,20.94
2023-05-02T07:14:26.360Z,22.64
2023-05-02T07:16:53.794Z,21.27
2023-05-02T07:19:20.578Z,21.38
2023-05-02T07:21:47.293Z,21.83
2023-05-02T07:24:16.715Z,21.61
2023-05-02T07:26:43.436Z,21.03
2023-05-02T07:29:11.536Z,20.98
2023-05-02T07:31:38.254Z,22.59
2023-05-02T07:34:05.138Z,21.31
2023-05-02T07:36:31.936Z,20.62
2023-05-02T07:38:58.620Z,20.50
2023-05-02T07:41:25.559Z,20.55
2023-05-02T07:43:52.234Z,19.57
2023-05-02T07:46:20.393Z,20.69
2023-05-02T07:48:47.204Z,20.72
2023-05-02T07:51:13.963Z,21.15
2023-05-02T07:53:40.670Z,22.94
2023-05-02T07:56:08.070Z,23.73
2023-05-02T07:58:35.105Z,22.49
2023-05-02T08:01:01.852Z,24.16
2023-05-02T08:03:30.092Z,22.88
2023-05-02T08:05:57.147Z,21.12
2023-05-02T08:08:23.981Z,21.52
2023-05-02T08:10:50.746Z,21.78
2023-05-02T08:13:17.490Z,22.72
2023-05-02T08:15:44.259Z,24.44
2023-05-02T08:18:11.146Z,23.47
2023-05-02T08:20:39.248Z,25.01
2023-05-02T08:23:06.070Z,23.81
2023-05-02T08:25:32.814Z,22.71
2023-05-02T08:27:59.523Z,23.77
2023-05-02T08:30:26.277Z,22.69
2023-05-02T08:32:53.070Z,22.59
2023-05-02T08:35:19.820Z,22.65
2023-05-02T08:37:47.957Z,23.58
2023-05-02T08:40:14.665Z,26.47
2023-05-02T08:42:41.922Z,25.03
2023-05-02T08:45:09.421Z,23.50
2023-05-02T08:47:36.554Z,24.30
2023-05-02T08:50:03.720Z,24.44
2023-05-02T08:52:30.617Z,24.28
2023-05-02T08:54:58.989Z,24.39
2023-05-02T08:57:26.459Z,25.66
2023-05-02T08:59:53.214Z,25.58
2023-05-02T09:02:27.190Z,25.34
2023-05-02T09:04:54.611Z,25.79
2023-05-02T09:07:21.457Z,25.38
2023-05-02T09:09:48.450Z,24.50
2023-05-02T09:12:16.607Z,23.60
2023-05-02T09:14:43.587Z,22.52
2023-05-02T09:17:10.418Z,23.46
2023-05-02T09:19:37.119Z,25.22
2023-05-02T09:22:03.825Z,25.89
2023-05-02T09:24:30.680Z,25.55
2023-05-02T09:26:58.722Z,25.39
2023-05-02T09:29:27.230Z,24.92
2023-05-02T09:31:56.076Z,24.06
2023-05-02T09:34:23.416Z,23.88
2023-05-02T09:36:51.004Z,24.81
2023-05-02T09:39:18.555Z,25.32
2023-05-02T09:41:45.755Z,24.48
2023-05-02T09:44:13.210Z,26.79
2023-05-02T09:46:41.607Z,25.80
2023-05-02T09:49:08.369Z,24.28
2023-05-02T09:51:35.032Z,24.19
2023-05-02T09:54:01.862Z,25.27
2023-05-02T09:56:28.758Z,25.21
2023-05-02T09:59:16.041Z,25.36
2023-05-02T10:01:44.164Z,25.48
2023-05-02T10:04:12.062Z,26.30
2023-05-02T10:06:38.886Z,24.52
2023-05-02T10:09:05.642Z,24.84
2023-05-02T10:11:32.358Z,26.45
2023-05-02T10:13:59.046Z,26.38
2023-05-02T10:16:27.944Z,24.39
2023-05-02T10:18:58.443Z,25.03
2023-05-02T10:21:25.885Z,26.30
2023-05-02T10:23:52.654Z,25.97
2023-05-02T10:26:19.573Z,25.21
2023-05-02T10:28:46.304Z,25.24
2023-05-02T10:31:13.478Z,27.91
2023-05-02T10:33:40.219Z,28.10
2023-05-02T10:36:09.485Z,27.71
2023-05-02T10:38:36.285Z,25.84
2023-05-02T10:41:05.473Z,27.17
2023-05-02T10:43:32.722Z,26.31
2023-05-02T10:45:59.369Z,26.08
2023-05-02T10:48:26.664Z,25.45
2023-05-02T10:50:54.457Z,26.63
2023-05-02T10:53:30.044Z,27.29
2023-05-02T10:56:16.906Z,27.74
2023-05-02T10:58:44.243Z,26.82
2023-05-02T11:01:33.171Z,27.47
2023-05-02T11:04:00.190Z,27.67
2023-05-02T11:06:28.510Z,28.09
2023-05-02T11:09:28.900Z,28.42
2023-05-02T11:11:57.111Z,28.04
2023-05-02T11:14:43.705Z,27.06
2023-05-02T11:17:10.416Z,26.90
2023-05-02T11:20:19.263Z,26.92
2023-05-02T11:22:46.220Z,26.67
2023-05-02T11:25:37.986Z,26.28
2023-05-02T11:28:07.207Z,27.26
2023-05-02T11:30:46.162Z,26.93
2023-05-02T11:33:16.514Z,27.78
2023-05-02T11:35:44.053Z,27.51
2023-05-02T11:38:11.597Z,27.22
2023-05-02T11:40:38.243Z,27.58
2023-05-02T11:43:13.910Z,26.82
2023-05-02T11:45:40.571Z,26.78
2023-05-02T11:48:07.778Z,27.30
2023-05-02T11:50:34.642Z,27.20
2023-05-02T11:53:01.314Z,27.65
2023-05-02T11:55:28.084Z,26.44
2023-05-02T11:57:54.776Z,26.96
2023-05-02T12:00:27.307Z,27.30
2023-05-02T12:02:54.062Z,27.53
2023-05-02T12:05:28.332Z,28.84
2023-05-02T12:07:55.102Z,27.41
2023-05-02T12:10:21.765Z,26.95
2023-05-02T12:12:48.498Z,27.16
2023-05-02T12:15:15.357Z,27.13
2023-05-02T12:17:45.524Z,28.04
2023-05-02T12:20:12.837Z,27.86
2023-05-02T12:22:39.564Z,27.86
2023-05-02T12:25:07.541Z,27.72
2023-05-02T12:27:34.306Z,25.96
2023-05-02T12:30:01.206Z,26.35
2023-05-02T12:32:28.673Z,27.22
2023-05-02T12:34:57.297Z,27.23
2023-05-02T12:37:24.142Z,26.62
2023-05-02T12:39:50.900Z,26.24
2023-05-02T12:42:19.376Z,26.86
2023-05-02T12:44:47.250Z,26.93
2023-05-02T12:47:14.536Z,26.11
2023-05-02T12:49:50.614Z,25.80
2023-05-02T12:52:18.878Z,26.00
2023-05-02T12:54:46.543Z,25.67
2023-05-02T12:57:22.934Z,25.27
2023-05-02T12:59:51.645Z,25.67
2023-05-02T13:02:18.371Z,25.15
2023-05-02T13:04:45.084Z,25.55
2023-05-02T13:07:11.754Z,25.10
2023-05-02T13:09:39.849Z,25.22
2023-05-02T13:12:06.679Z,25.38
2023-05-02T13:14:33.490Z,25.50
2023-05-02T13:17:00.468Z,25.10
2023-05-02T13:19:27.216Z,24.86
2023-05-02T13:21:53.910Z,25.29
2023-05-02T13:24:20.628Z,25.24
2023-05-02T13:26:48.826Z,25.00
2023-05-02T13:29:15.498Z,24.84
2023-05-02T13:31:42.175Z,24.86
2023-05-02T13:34:08.951Z,24.56
2023-05-02T13:36:35.628Z,24.39
2023-05-02T13:39:02.346Z,24.44
2023-05-02T13:41:29.099Z,24.71
2023-05-02T13:43:57.257Z,24.19
2023-05-02T13:46:24.012Z,24.64
2023-05-02T13:48:50.835Z,24.48
2023-05-02T13:51:17.520Z,24.40
2023-05-02T13:53:44.209Z,24.57
2023-05-02T13:56:12.189Z,24.19
2023-05-02T13:58:38.955Z,24.29
2023-05-02T14:01:07.100Z,24.25
2023-05-02T14:03:33.930Z,24.39
2023-05-02T14:06:00.781Z,24.70
2023-05-02T14:08:27.470Z,24.77
2023-05-02T14:10:54.258Z,25.08
2023-05-02T14:13:21.016Z,24.57
2023-05-02T14:15:47.812Z,24.55
2023-05-02T14:18:16.038Z,24.19
2023-05-02T14:20:42.726Z,24.00
2023-05-02T14:23:09.450Z,24.40
2023-05-02T14:25:36.192Z,24.29
2023-05-02T14:28:03.092Z,24.06
2023-05-02T14:30:29.917Z,23.75
2023-05-02T14:32:56.766Z,23.92
2023-05-02T14:35:25.183Z,23.95
2023-05-02T14:37:51.908Z,24.01
2023-05-02T14:40:18.851Z,24.18
2023-05-02T14:42:45.561Z,23.71
2023-05-02T14:45:12.504Z,23.78
2023-05-02T14:47:39.342Z,23.70
2023-05-02T14:50:07.339Z,23.74
2023-05-02T14:52:35.536Z,23.46
2023-05-02T14:55:02.398Z,23.42
2023-05-02T14:57:29.218Z,23.49
2023-05-02T14:59:56.018Z,23.44
2023-05-02T15:02:22.899Z,23.47
2023-05-02T15:04:50.039Z,23.65
2023-05-02T15:07:17.162Z,23.26
2023-05-02T15:09:45.605Z,23.24
2023-05-02T15:12:12.304Z,23.46
2023-05-02T15:14:39.161Z,23.34
2023-05-02T15:17:06.010Z,23.05
2023-05-02T15:19:32.808Z,23.28
2023-05-02T15:21:59.526Z,22.84
2023-05-02T15:24:26.452Z,22.82
2023-05-02T15:26:54.568Z,23.03
2023-05-02T15:29:21.298Z,22.84
2023-05-02T15:31:48.103Z,22.72
2023-05-02T15:34:15.276Z,22.85
2023-05-02T15:36:41.987Z,22.96
2023-05-02T15:39:08.751Z,23.07
2023-05-02T15:41:35.487Z,22.86
2023-05-02T15:44:03.787Z,22.84
2023-05-02T15:46:30.645Z,22.84
2023-05-02T15:48:57.391Z,22.92
2023-05-02T15:51:24.105Z,22.72
2023-05-02T15:53:51.062Z,22.52
2023-05-02T15:56:17.808Z,22.27
2023-05-02T15:58:44.515Z,22.37
2023-05-02T16:01:12.823Z,22.13
2023-05-02T16:03:39.766Z,22.22
2023-05-02T16:06:07.029Z,22.07
2023-05-02T16:08:33.848Z,21.86
2023-05-02T16:11:00.533Z,21.80
2023-05-02T16:13:27.249Z,21.67
2023-05-02T16:15:54.020Z,21.44
2023-05-02T16:18:22.145Z,21.59
2023-05-02T16:20:48.858Z,21.51
2023-05-02T16:23:15.592Z,21.46
2023-05-02T16:25:42.305Z,21.63
2023-05-02T16:28:09.086Z,21.55
2023-05-02T16:30:36.038Z,21.23
2023-05-02T16:33:02.866Z,21.25
2023-05-02T16:35:31.001Z,21.14
2023-05-02T16:37:57.731Z,21.03
2023-05-02T16:40:25.768Z,20.79
2023-05-02T16:42:54.205Z,20.67
2023-05-02T16:45:21.289Z,20.63
2023-05-02T16:47:48.055Z,20.69
2023-05-02T16:50:14.968Z,20.52
2023-05-02T16:52:43.081Z,20.35
2023-05-02T16:55:09.949Z,20.35
2023-05-02T16:57:36.681Z,20.01
2023-05-02T17:00:03.889Z,20.01
2023-05-02T17:02:31.001Z,19.85
2023-05-02T17:04:57.804Z,19.69
2023-05-02T17:07:24.532Z,19.69
2023-05-02T17:09:52.607Z,19.53
2023-05-02T17:12:19.363Z,19.36
2023-05-02T17:14:46.128Z,19.20
2023-05-02T17:17:12.863Z,19.13
2023-05-02T17:19:39.656Z,19.03
2023-05-02T17:22:06.379Z,18.69
2023-05-02T17:24:33.294Z,18.38
2023-05-02T17:27:01.508Z,18.22
2023-05-02T17:29:28.204Z,18.09
2023-05-02T17:31:54.906Z,17.82
2023-05-02T17:34:21.588Z,17.68
2023-05-02T17:36:48.367Z,17.57
2023-05-02T17:39:15.062Z,17.34
2023-05-02T17:41:41.750Z,17.24
2023-05-02T17:44:09.906Z,17.14
2023-05-02T17:46:36.724Z,17.04
2023-05-02T17:49:03.563Z,17.07
2023-05-02T17:51:30.378Z,16.99
2023-05-02T17:53:57.066Z,16.87
2023-05-02T17:56:23.754Z,16.82
2023-05-02T17:58:50.599Z,16.84
2023-05-02T18:01:18.792Z,16.68
2023-05-02T18:03:45.662Z,16.76
2023-05-02T18:06:15.632Z,16.61
2023-05-02T18:08:42.434Z,16.48
2023-05-02T18:11:13.907Z,16.44
2023-05-02T18:13:40.754Z,16.42
2023-05-02T18:16:07.473Z,16.32
2023-05-02T18:18:39.119Z,16.35
2023-05-02T18:21:05.956Z,16.42
2023-05-02T18:23:32.732Z,16.38
2023-05-02T18:25:59.381Z,16.34
2023-05-02T18:28:26.240Z,16.29
2023-05-02T18:30:52.937Z,16.17
2023-05-02T18:33:19.656Z,16.20
2023-05-02T18:35:47.889Z,16.24
2023-05-02T18:38:14.685Z,16.07
2023-05-02T18:40:41.431Z,16.03
2023-05-02T18:43:08.232Z,16.07
2023-05-02T18:45:35.133Z,16.11
2023-05-02T18:48:01.962Z,16.13
2023-05-02T18:50:28.720Z,16.04
2023-05-02T18:52:56.804Z,15.98
2023-05-02T18:55:25.600Z,16.00
2023-05-02T18:57:52.383Z,16.03
2023-05-02T19:00:19.463Z,16.08
2023-05-02T19:02:46.341Z,16.08
2023-05-02T19:05:13.218Z,16.01
2023-05-02T19:07:42.534Z,15.97
2023-05-02T19:10:11.016Z,15.86
2023-05-02T19:12:37.922Z,15.74
2023-05-02T19:15:05.547Z,15.70
2023-05-02T19:17:32.269Z,15.60
2023-05-02T19:19:59.062Z,15.60
2023-05-02T19:22:25.901Z,15.55
2023-05-02T19:24:52.894Z,15.52
2023-05-02T19:27:21.053Z,15.45
2023-05-02T19:29:47.776Z,15.46
2023-05-02T19:32:14.832Z,15.47
2023-05-02T19:34:41.842Z,15.47
2023-05-02T19:37:08.822Z,15.50
2023-05-02T19:39:35.513Z,15.46
2023-05-02T19:42:02.384Z,15.36
2023-05-02T19:44:30.500Z,15.40
2023-05-02T19:46:57.261Z,15.42
2023-05-02T19:49:24.433Z,15.45
2023-05-02T19:51:51.227Z,15.42
2023-05-02T19:54:17.909Z,15.45
2023-05-02T19:56:44.684Z,15.42
2023-05-02T19:59:11.442Z,15.39
2023-05-02T20:01:39.680Z,15.34
2023-05-02T20:04:06.453Z,15.36
2023-05-02T20:06:33.157Z,15.35
2023-05-02T20:08:59.874Z,15.35
2023-05-02T20:11:26.610Z,15.38
2023-05-02T20:13:53.303Z,15.35
2023-05-02T20:16:20.138Z,15.31
2023-05-02T20:18:48.386Z,15.24
2023-05-02T20:21:15.112Z,15.18
2023-05-02T20:23:41.852Z,15.12
2023-05-02T20:26:08.619Z,15.14
2023-05-02T20:28:35.340Z,15.07
2023-05-02T20:31:02.112Z,15.05
2023-05-02T20:33:43.797Z,15.07
2023-05-02T20:36:13.698Z,14.98
2023-05-02T20:38:40.624Z,14.94
2023-05-02T20:41:07.298Z,14.94
2023-05-02T20:43:34.038Z,14.92
2023-05-02T20:46:08.512Z,14.92
2023-05-02T20:48:35.230Z,15.09
2023-05-02T20:51:01.907Z,15.01
2023-05-02T20:53:30.498Z,14.99
2023-05-02T20:55:57.302Z,15.04
2023-05-02T20:58:24.087Z,14.91
2023-05-02T21:00:50.809Z,14.84
2023-05-02T21:03:17.608Z,14.85
2023-05-02T21:05:44.429Z,14.80
2023-05-02T21:08:11.961Z,14.78
2023-05-02T21:10:40.025Z,14.76
2023-05-02T21:13:06.722Z,14.77
2023-05-02T21:15:35.083Z,14.74
2023-05-02T21:18:02.003Z,14.73
2023-05-02T21:20:28.776Z,14.67
2023-05-02T21:22:55.536Z,14.67
2023-05-02T21:25:22.530Z,14.69
2023-05-02T21:27:50.715Z,14.64
2023-05-02T21:30:17.618Z,14.60
2023-05-02T21:32:44.767Z,14.66
2023-05-02T21:35:11.689Z,14.67
2023-05-02T21:37:38.423Z,14.66
2023-05-02T21:40:06.369Z,14.63
2023-05-02T21:42:33.119Z,14.63
2023-05-02T21:45:01.382Z,14.66
2023-05-02T21:47:28.087Z,14.63
2023-05-02T21:49:55.590Z,14.56
2023-05-02T21:52:22.335Z,14.53
2023-05-02T21:54:49.039Z,14.61
2023-05-02T21:57:15.732Z,14.64
2023-05-02T21:59:42.658Z,14.56
2023-05-02T22:02:10.772Z,14.60
2023-05-02T22:04:37.521Z,14.51
2023-05-02T22:07:04.306Z,14.49
2023-05-02T22:09:33.442Z,14.46
2023-05-02T22:12:00.374Z,14.40
2023-05-02T22:14:33.783Z,14.43
2023-05-02T22:17:12.166Z,14.49
2023-05-02T22:19:38.896Z,14.40
2023-05-02T22:22:05.641Z,14.42
2023-05-02T22:24:32.890Z,14.46
2023-05-02T22:26:59.658Z,14.36
2023-05-02T22:29:26.366Z,14.28
2023-05-02T22:31:53.070Z,14.28
2023-05-02T22:34:21.202Z,14.40
2023-05-02T22:36:47.921Z,14.36
2023-05-02T22:39:14.643Z,14.32
2023-05-02T22:41:41.598Z,14.28
2023-05-02T22:44:08.341Z,14.16
2023-05-02T22:46:35.856Z,14.15
2023-05-02T22:49:02.636Z,14.16
2023-05-02T22:51:30.752Z,14.13
2023-05-02T22:53:57.460Z,14.08
2023-05-02T22:56:24.430Z,14.11
2023-05-02T22:58:51.113Z,14.04
2023-05-02T23:01:17.871Z,14.06
2023-05-02T23:03:44.745Z,14.08
2023-05-02T23:06:11.584Z,14.04
2023-05-02T23:08:39.730Z,13.97
2023-05-02T23:11:06.545Z,13.89
2023-05-02T23:13:33.244Z,13.94
2023-05-02T23:15:59.970Z,13.95
2023-05-02T23:18:26.811Z,13.94
2023-05-02T23:20:53.485Z,13.95
2023-05-02T23:23:20.163Z,13.94
2023-05-02T23:25:48.444Z,14.01
2023-05-02T23:28:15.177Z,13.92
2023-05-02T23:30:41.888Z,14.04
2023-05-02T23:33:08.612Z,14.04
2023-05-02T23:35:35.306Z,13.97
2023-05-02T23:38:04.576Z,13.91
2023-05-02T23:40:31.300Z,13.97
2023-05-02T23:42:59.359Z,13.95
2023-05-02T23:45:26.038Z,13.97
2023-05-02T23:47:52.887Z,13.94
2023-05-02T23:50:19.646Z,13.94
2023-05-02T23:52:46.369Z,13.81
2023-05-02T23:55:13.153Z,13.92
2023-05-02T23:57:39.844Z,13.89
